FAOF weather

Jack Duvenhage Airport
Olifantshoek, Northern Cape, South Africa

Public forecast

Using degrees Celsius for public forecast. Weather courtesy of forecast.io.

METAR (pilot weather report)

Report is more than 6 hours old.

Closest report is Sishen Airport, 24.1 nm (44.6 km) NE. Retrieved 2009/09/27 11:00 UTC (10 years ago):

FASS 271100Z AUTO 32008KT //// // ////// 31/M00 Q1019

TAF (pilot weather forecast)

Forecast is more than 12 hours old.

Closest forecast is Pierre Van Ryneveld Airport, 81.4 nm (150.8 km) WSW. Retrieved 2019/08/23 00:00 UTC (2 days ago):

TAF FAUP 232200Z 2400/2424 VRB03KT CAVOK TX31/2412Z TN11/2405Z